createdAt,value
2022-10-09T00:01:12.455Z,11.70
2022-10-09T00:03:03.107Z,11.60
2022-10-09T00:04:53.856Z,11.50
2022-10-09T00:06:44.643Z,11.50
2022-10-09T00:08:37.480Z,11.50
2022-10-09T00:10:28.590Z,11.60
2022-10-09T00:12:19.085Z,11.60
2022-10-09T00:14:09.878Z,11.60
2022-10-09T00:16:03.949Z,11.50
2022-10-09T00:17:54.633Z,11.60
2022-10-09T00:19:45.528Z,11.70
2022-10-09T00:21:36.413Z,11.70
2022-10-09T00:23:27.199Z,11.70
2022-10-09T00:25:19.299Z,11.80
2022-10-09T00:27:09.946Z,11.80
2022-10-09T00:29:00.781Z,11.70
2022-10-09T00:30:52.102Z,11.70
2022-10-09T00:32:42.668Z,11.60
2022-10-09T00:34:33.563Z,11.50
2022-10-09T00:36:26.256Z,11.50
2022-10-09T00:38:17.102Z,11.50
2022-10-09T00:40:08.856Z,11.50
2022-10-09T00:42:01.660Z,11.50
2022-10-09T00:43:55.129Z,11.40
2022-10-09T00:45:51.499Z,11.50
2022-10-09T00:47:46.511Z,11.50
2022-10-09T00:49:37.284Z,11.50
2022-10-09T00:51:31.125Z,11.50
2022-10-09T00:53:26.125Z,11.50
2022-10-09T00:55:17.377Z,11.40
2022-10-09T00:57:10.287Z,11.50
2022-10-09T00:59:02.836Z,11.50
2022-10-09T01:00:53.852Z,11.60
2022-10-09T01:02:44.979Z,11.50
2022-10-09T01:04:36.257Z,11.40
2022-10-09T01:06:44.430Z,11.40
2022-10-09T01:08:44.196Z,11.40
2022-10-09T01:10:45.030Z,11.50
2022-10-09T01:12:48.595Z,11.50
2022-10-09T01:14:49.776Z,11.50
2022-10-09T01:16:47.328Z,11.50
2022-10-09T01:18:46.795Z,11.40
2022-10-09T01:20:49.334Z,11.40
2022-10-09T01:22:53.429Z,11.30
2022-10-09T01:24:52.641Z,11.40
2022-10-09T01:27:09.783Z,11.40
2022-10-09T01:29:06.346Z,11.30
2022-10-09T01:31:00.015Z,11.20
2022-10-09T01:32:53.372Z,11.30
2022-10-09T01:34:45.944Z,11.20
2022-10-09T01:36:37.970Z,11.10
2022-10-09T01:38:30.218Z,11.20
2022-10-09T01:40:23.565Z,11.20
2022-10-09T01:42:18.442Z,11.10
2022-10-09T01:44:17.391Z,11.10
2022-10-09T01:46:21.238Z,11.10
2022-10-09T01:48:17.314Z,11.10
2022-10-09T01:50:18.720Z,11.10
2022-10-09T01:52:24.488Z,11.10
2022-10-09T01:54:20.918Z,11.00
2022-10-09T01:56:19.022Z,11.00
2022-10-09T01:58:18.536Z,11.10
2022-10-09T02:00:12.094Z,11.10
2022-10-09T02:02:02.730Z,11.10
2022-10-09T02:03:56.508Z,11.00
2022-10-09T02:05:51.244Z,11.00
2022-10-09T02:07:42.073Z,11.00
2022-10-09T02:09:34.192Z,11.00
2022-10-09T02:11:29.278Z,11.00
2022-10-09T02:13:21.412Z,11.00
2022-10-09T02:15:12.516Z,11.10
2022-10-09T02:17:09.098Z,11.00
2022-10-09T02:19:05.876Z,11.00
2022-10-09T02:21:05.578Z,10.90
2022-10-09T02:22:58.398Z,10.90
2022-10-09T02:24:49.485Z,10.90
2022-10-09T02:26:40.716Z,10.90
2022-10-09T02:28:33.188Z,10.90
2022-10-09T02:30:27.972Z,10.90
2022-10-09T02:32:18.921Z,10.90
2022-10-09T02:34:12.690Z,10.90
2022-10-09T02:36:03.712Z,10.90
2022-10-09T02:37:54.248Z,10.90
2022-10-09T02:39:45.101Z,11.00
2022-10-09T02:41:36.211Z,10.90
2022-10-09T02:43:27.052Z,10.90
2022-10-09T02:45:18.953Z,10.90
2022-10-09T02:47:09.809Z,10.90
2022-10-09T02:49:00.871Z,10.70
2022-10-09T02:50:51.184Z,10.80
2022-10-09T02:52:41.917Z,10.80
2022-10-09T02:54:32.780Z,10.70
2022-10-09T02:56:23.841Z,10.70
2022-10-09T02:58:14.566Z,10.70
2022-10-09T03:00:07.408Z,10.70
2022-10-09T03:01:59.648Z,10.70
2022-10-09T03:03:50.695Z,10.70
2022-10-09T03:05:41.735Z,10.80
2022-10-09T03:07:32.455Z,10.70
2022-10-09T03:09:23.664Z,10.70
2022-10-09T03:11:16.755Z,10.70
2022-10-09T03:13:07.547Z,10.70
2022-10-09T03:14:57.863Z,10.60
2022-10-09T03:16:48.768Z,10.60
2022-10-09T03:18:41.200Z,10.50
2022-10-09T03:20:32.296Z,10.50
2022-10-09T03:22:23.392Z,10.60
2022-10-09T03:24:14.555Z,10.60
2022-10-09T03:26:08.298Z,10.60
2022-10-09T03:27:58.832Z,10.60
2022-10-09T03:29:49.556Z,10.60
2022-10-09T03:31:51.994Z,10.50
2022-10-09T03:33:45.066Z,10.50
2022-10-09T03:35:35.487Z,10.50
2022-10-09T03:37:26.499Z,10.60
2022-10-09T03:39:17.442Z,10.60
2022-10-09T03:41:08.444Z,10.60
2022-10-09T03:42:59.244Z,10.60
2022-10-09T03:44:50.748Z,10.60
2022-10-09T03:46:41.463Z,10.60
2022-10-09T03:48:34.183Z,10.70
2022-10-09T03:50:26.278Z,10.60
2022-10-09T03:52:16.834Z,10.60
2022-10-09T03:54:07.700Z,10.60
2022-10-09T03:55:58.572Z,10.50
2022-10-09T03:57:49.417Z,10.40
2022-10-09T03:59:40.316Z,10.30
2022-10-09T04:01:31.337Z,10.40
2022-10-09T04:03:21.802Z,10.40
2022-10-09T04:05:12.489Z,10.40
2022-10-09T04:07:04.655Z,10.30
2022-10-09T04:08:55.133Z,10.30
2022-10-09T04:10:46.036Z,10.40
2022-10-09T04:12:37.020Z,10.40
2022-10-09T04:14:27.880Z,10.40
2022-10-09T04:16:18.783Z,10.40
2022-10-09T04:18:09.456Z,10.50
2022-10-09T04:20:00.254Z,10.50
2022-10-09T04:21:50.855Z,10.40
2022-10-09T04:23:43.014Z,10.40
2022-10-09T04:25:33.698Z,10.50
2022-10-09T04:27:24.313Z,10.40
2022-10-09T04:29:15.301Z,10.40
2022-10-09T04:31:06.131Z,10.40
2022-10-09T04:32:57.128Z,10.40
2022-10-09T04:34:48.120Z,10.40
2022-10-09T04:36:38.675Z,10.40
2022-10-09T04:38:31.570Z,10.40
2022-10-09T04:40:23.708Z,10.30
2022-10-09T04:42:14.480Z,10.30
2022-10-09T04:44:05.331Z,10.30
2022-10-09T04:45:56.258Z,10.20
2022-10-09T04:47:46.972Z,10.20
2022-10-09T04:49:37.778Z,10.20
2022-10-09T04:51:28.817Z,10.20
2022-10-09T04:53:19.382Z,10.30
2022-10-09T04:55:10.547Z,10.30
2022-10-09T04:57:02.418Z,10.30
2022-10-09T04:58:53.064Z,10.30
2022-10-09T05:00:46.177Z,10.30
2022-10-09T05:02:37.351Z,10.40
2022-10-09T05:04:27.957Z,10.40
2022-10-09T05:06:20.751Z,10.40
2022-10-09T05:08:11.432Z,10.40
2022-10-09T05:10:02.055Z,10.30
2022-10-09T05:11:52.815Z,10.30
2022-10-09T05:13:47.289Z,10.30
2022-10-09T05:15:38.304Z,10.30
2022-10-09T05:17:29.080Z,10.30
2022-10-09T05:19:19.765Z,10.30
2022-10-09T05:21:11.050Z,10.30
2022-10-09T05:23:01.616Z,10.30
2022-10-09T05:24:52.482Z,10.20
2022-10-09T05:26:43.350Z,10.30
2022-10-09T05:28:35.118Z,10.30
2022-10-09T05:30:27.717Z,10.30
2022-10-09T05:32:18.268Z,10.30
2022-10-09T05:34:09.354Z,10.20
2022-10-09T05:36:02.287Z,10.20
2022-10-09T05:37:52.781Z,10.20
2022-10-09T05:39:43.501Z,10.20
2022-10-09T05:41:34.424Z,10.20
2022-10-09T05:43:26.157Z,10.20
2022-10-09T05:45:16.924Z,10.20
2022-10-09T05:47:09.169Z,10.20
2022-10-09T05:49:02.087Z,10.20
2022-10-09T05:50:52.914Z,10.20
2022-10-09T05:52:43.782Z,10.10
2022-10-09T05:54:34.483Z,10.10
2022-10-09T05:56:27.843Z,10.00
2022-10-09T05:58:18.558Z,10.00
2022-10-09T06:00:11.495Z,10.00
2022-10-09T06:02:02.402Z,10.00
2022-10-09T06:03:56.596Z,10.00
2022-10-09T06:05:47.303Z,10.00
2022-10-09T06:07:38.177Z,10.00
2022-10-09T06:09:29.198Z,9.90
2022-10-09T06:11:22.380Z,10.00
2022-10-09T06:13:12.882Z,10.00
2022-10-09T06:15:04.356Z,10.00
2022-10-09T06:16:55.141Z,10.00
2022-10-09T06:18:49.420Z,9.90
2022-10-09T06:20:41.568Z,9.90
2022-10-09T06:22:32.291Z,9.90
2022-10-09T06:24:28.838Z,9.90
2022-10-09T06:26:21.528Z,9.90
2022-10-09T06:28:11.857Z,9.90
2022-10-09T06:30:02.363Z,10.00
2022-10-09T06:31:53.457Z,10.10
2022-10-09T06:33:45.473Z,10.10
2022-10-09T06:35:36.952Z,10.10
2022-10-09T06:37:29.086Z,10.00
2022-10-09T06:39:20.037Z,10.00
2022-10-09T06:41:14.044Z,10.10
2022-10-09T06:43:05.489Z,10.10
2022-10-09T06:44:56.417Z,10.10
2022-10-09T06:46:49.560Z,10.10
2022-10-09T06:48:41.032Z,10.20
2022-10-09T06:50:35.400Z,10.20
2022-10-09T06:52:27.574Z,10.20
2022-10-09T06:54:18.177Z,10.30
2022-10-09T06:56:09.925Z,10.30
2022-10-09T06:58:00.783Z,10.40
2022-10-09T06:59:51.645Z,10.40
2022-10-09T07:01:42.351Z,10.50
2022-10-09T07:03:33.833Z,10.50
2022-10-09T07:05:24.921Z,10.50
2022-10-09T07:07:15.365Z,10.50
2022-10-09T07:09:10.312Z,10.60
2022-10-09T07:11:07.078Z,10.60
2022-10-09T07:12:57.647Z,10.60
2022-10-09T07:14:48.375Z,10.70
2022-10-09T07:16:42.566Z,10.80
2022-10-09T07:18:33.821Z,10.80
2022-10-09T07:20:24.507Z,10.90
2022-10-09T07:22:15.296Z,10.90
2022-10-09T07:24:08.271Z,10.90
2022-10-09T07:25:59.986Z,11.00
2022-10-09T07:27:50.900Z,11.00
2022-10-09T07:29:41.368Z,11.10
2022-10-09T07:31:32.128Z,11.20
2022-10-09T07:33:23.122Z,11.20
2022-10-09T07:35:14.207Z,11.30
2022-10-09T07:37:04.831Z,11.40
2022-10-09T07:38:58.144Z,11.40
2022-10-09T07:40:50.141Z,11.40
2022-10-09T07:42:40.888Z,11.50
2022-10-09T07:44:31.932Z,11.50
2022-10-09T07:46:24.558Z,11.60
2022-10-09T07:48:15.552Z,11.70
2022-10-09T07:50:07.877Z,11.70
2022-10-09T07:51:58.907Z,11.70
2022-10-09T07:53:50.855Z,11.80
2022-10-09T07:55:45.448Z,11.80
2022-10-09T07:57:37.397Z,11.90
2022-10-09T07:59:28.151Z,12.00
2022-10-09T08:01:20.535Z,12.00
2022-10-09T08:03:11.785Z,12.10
2022-10-09T08:05:02.682Z,12.10
2022-10-09T08:06:53.600Z,12.20
2022-10-09T08:08:44.861Z,12.30
2022-10-09T08:10:35.662Z,12.30
2022-10-09T08:12:26.714Z,12.40
2022-10-09T08:14:19.555Z,12.40
2022-10-09T08:16:11.116Z,12.50
2022-10-09T08:18:01.784Z,12.50
2022-10-09T08:19:52.465Z,12.50
2022-10-09T08:21:43.202Z,12.60
2022-10-09T08:23:33.887Z,12.60
2022-10-09T08:25:24.795Z,12.70
2022-10-09T08:27:16.009Z,12.80
2022-10-09T08:29:06.974Z,12.80
2022-10-09T08:30:59.167Z,12.90
2022-10-09T08:32:50.407Z,12.90
2022-10-09T08:34:41.819Z,12.90
2022-10-09T08:36:32.650Z,12.90
2022-10-09T08:38:46.266Z,13.00
2022-10-09T08:40:45.210Z,13.10
2022-10-09T08:42:42.893Z,13.20
2022-10-09T08:44:39.271Z,13.20
2022-10-09T08:46:57.388Z,13.30
2022-10-09T08:48:50.796Z,13.30
2022-10-09T08:50:49.637Z,13.40
2022-10-09T08:52:50.253Z,13.40
2022-10-09T08:54:41.097Z,13.50
2022-10-09T08:56:34.243Z,13.50
2022-10-09T08:58:29.478Z,13.60
2022-10-09T09:00:23.859Z,13.70
2022-10-09T09:02:35.813Z,13.70
2022-10-09T09:04:59.988Z,13.80
2022-10-09T09:07:02.539Z,13.90
2022-10-09T09:08:59.694Z,13.90
2022-10-09T09:10:57.456Z,14.00
2022-10-09T09:12:54.689Z,14.10
2022-10-09T09:15:01.363Z,14.10
2022-10-09T09:17:03.160Z,14.20
2022-10-09T09:19:16.155Z,14.30
2022-10-09T09:21:21.924Z,14.30
2022-10-09T09:23:15.904Z,14.40
2022-10-09T09:25:20.460Z,14.40
2022-10-09T09:27:15.876Z,14.50
2022-10-09T09:29:06.901Z,14.50
2022-10-09T09:31:03.353Z,14.50
2022-10-09T09:33:04.686Z,14.60
2022-10-09T09:35:08.161Z,14.60
2022-10-09T09:36:59.112Z,14.70
2022-10-09T09:39:26.057Z,14.70
2022-10-09T09:41:03.152Z,14.80
2022-10-09T09:42:54.969Z,14.90
2022-10-09T09:44:55.864Z,14.90
2022-10-09T09:46:49.208Z,15.00
2022-10-09T09:48:43.379Z,15.00
2022-10-09T09:51:10.367Z,15.00
2022-10-09T09:52:54.722Z,15.10
2022-10-09T09:54:49.034Z,15.10
2022-10-09T09:57:10.603Z,15.20
2022-10-09T09:58:53.943Z,15.20
2022-10-09T10:00:54.876Z,15.20
2022-10-09T10:02:45.436Z,15.30
2022-10-09T10:04:39.839Z,15.40
2022-10-09T10:06:42.128Z,15.40
2022-10-09T10:08:34.430Z,15.50
2022-10-09T10:10:27.309Z,15.50
2022-10-09T10:12:19.277Z,15.50
2022-10-09T10:14:14.440Z,15.60
2022-10-09T10:16:07.895Z,15.70
2022-10-09T10:18:02.597Z,15.70
2022-10-09T10:19:53.171Z,15.70
2022-10-09T10:21:55.071Z,15.80
2022-10-09T10:23:52.222Z,15.80
2022-10-09T10:25:43.085Z,15.90
2022-10-09T10:27:40.291Z,15.90
2022-10-09T10:29:37.111Z,15.90
2022-10-09T10:31:50.241Z,16.00
2022-10-09T10:33:44.514Z,16.00
2022-10-09T10:35:41.282Z,16.10
2022-10-09T10:37:42.602Z,16.30
2022-10-09T10:39:41.616Z,16.20
2022-10-09T10:41:38.699Z,16.30
2022-10-09T10:43:38.924Z,16.30
2022-10-09T10:45:35.394Z,16.30
2022-10-09T10:47:30.802Z,16.40
2022-10-09T10:49:23.125Z,16.40
2022-10-09T10:51:54.160Z,16.40
2022-10-09T10:54:03.141Z,16.50
2022-10-09T10:56:00.210Z,16.60
2022-10-09T10:58:06.639Z,16.60
2022-10-09T11:00:04.610Z,16.80
2022-10-09T11:02:41.987Z,16.80
2022-10-09T11:04:50.520Z,16.80
2022-10-09T11:06:52.098Z,16.90
2022-10-09T11:09:02.933Z,16.90
2022-10-09T11:11:03.257Z,16.90
2022-10-09T11:13:01.050Z,16.90
2022-10-09T11:15:04.755Z,16.90
2022-10-09T11:17:05.163Z,16.90
2022-10-09T11:19:28.327Z,17.10
2022-10-09T11:21:37.450Z,17.10
2022-10-09T11:23:47.421Z,17.10
2022-10-09T11:25:50.403Z,17.20
2022-10-09T11:27:49.833Z,17.30
2022-10-09T11:29:45.239Z,17.30
2022-10-09T11:31:41.250Z,17.40
2022-10-09T11:33:38.667Z,17.40
2022-10-09T11:35:36.776Z,17.40
2022-10-09T11:37:32.779Z,17.50
2022-10-09T11:39:28.588Z,17.50
2022-10-09T11:41:21.534Z,17.50
2022-10-09T11:43:35.457Z,17.50
2022-10-09T11:45:35.947Z,17.60
2022-10-09T11:47:34.573Z,17.70
2022-10-09T11:49:35.744Z,17.80
2022-10-09T11:51:34.777Z,17.90
2022-10-09T11:53:28.454Z,18.10
2022-10-09T11:55:23.888Z,18.10
2022-10-09T11:57:28.251Z,18.20
2022-10-09T11:59:23.985Z,18.30
2022-10-09T12:01:25.985Z,18.40
2022-10-09T12:03:30.747Z,18.40
2022-10-09T12:05:38.600Z,18.40
2022-10-09T12:07:34.260Z,18.60
2022-10-09T12:09:28.800Z,18.70
2022-10-09T12:11:19.996Z,18.80
2022-10-09T12:13:41.695Z,19.00
2022-10-09T12:15:40.528Z,19.00
2022-10-09T12:17:35.104Z,19.20
2022-10-09T12:19:30.055Z,19.30
2022-10-09T12:21:26.309Z,19.30
2022-10-09T12:23:26.616Z,19.40
2022-10-09T12:25:28.125Z,19.60
2022-10-09T12:27:23.988Z,19.70
2022-10-09T12:29:24.443Z,19.80
2022-10-09T12:31:22.029Z,19.70
2022-10-09T12:33:22.564Z,19.90
2022-10-09T12:35:22.531Z,19.90
2022-10-09T12:37:16.736Z,19.90
2022-10-09T12:39:15.829Z,20.00
2022-10-09T12:41:15.603Z,20.00
2022-10-09T12:43:08.647Z,20.10
2022-10-09T12:45:00.588Z,20.10
2022-10-09T12:46:51.934Z,20.30
2022-10-09T12:48:43.623Z,20.30
2022-10-09T12:50:35.856Z,20.30
2022-10-09T12:52:27.463Z,20.40
2022-10-09T12:54:18.264Z,20.60
2022-10-09T12:56:12.266Z,20.60
2022-10-09T12:58:06.604Z,20.70
2022-10-09T12:59:58.135Z,20.70
2022-10-09T13:01:53.755Z,20.80
2022-10-09T13:03:55.066Z,20.70
2022-10-09T13:05:45.907Z,20.80
2022-10-09T13:07:36.959Z,20.90
2022-10-09T13:09:33.944Z,20.90
2022-10-09T13:11:32.793Z,20.90
2022-10-09T13:13:27.255Z,20.80
2022-10-09T13:15:32.351Z,20.90
2022-10-09T13:19:27.308Z,20.90
2022-10-09T13:21:23.183Z,21.00
2022-10-09T13:23:29.355Z,21.10
2022-10-09T13:25:20.301Z,21.10
2022-10-09T13:27:12.059Z,21.10
2022-10-09T13:29:02.985Z,21.10
2022-10-09T13:30:53.911Z,21.10
2022-10-09T13:32:46.372Z,21.20
2022-10-09T13:34:37.315Z,21.10
2022-10-09T13:36:28.072Z,21.30
2022-10-09T13:38:18.946Z,21.20
2022-10-09T13:40:14.072Z,21.30
2022-10-09T13:42:05.414Z,21.30
2022-10-09T13:43:56.375Z,21.30
2022-10-09T13:45:47.346Z,21.40
2022-10-09T13:47:38.338Z,21.40
2022-10-09T13:49:30.431Z,21.50
2022-10-09T13:51:21.207Z,21.50
2022-10-09T13:53:11.835Z,21.60
2022-10-09T13:55:02.720Z,21.50
2022-10-09T13:56:53.796Z,21.50
2022-10-09T13:58:44.709Z,21.50
2022-10-09T14:00:35.853Z,21.50
2022-10-09T14:02:26.641Z,21.40
2022-10-09T14:04:17.246Z,21.40
2022-10-09T14:06:09.585Z,21.30
2022-10-09T14:08:00.035Z,21.30
2022-10-09T14:09:50.734Z,21.30
2022-10-09T14:11:41.665Z,21.00
2022-10-09T14:13:32.786Z,20.90
2022-10-09T14:15:24.174Z,20.80
2022-10-09T14:17:15.214Z,20.90
2022-10-09T14:19:06.588Z,20.90
2022-10-09T14:20:57.070Z,20.80
2022-10-09T14:22:51.742Z,20.80
2022-10-09T14:24:43.495Z,20.70
2022-10-09T14:26:34.338Z,20.70
2022-10-09T14:28:25.268Z,20.60
2022-10-09T14:30:16.374Z,20.50
2022-10-09T14:32:07.159Z,20.40
2022-10-09T14:33:59.473Z,20.40
2022-10-09T14:35:50.058Z,20.40
2022-10-09T14:37:42.218Z,20.40
2022-10-09T14:39:34.250Z,20.20
2022-10-09T14:41:25.027Z,20.10
2022-10-09T14:43:15.985Z,19.90
2022-10-09T14:45:08.719Z,19.90
2022-10-09T14:46:59.316Z,19.90
2022-10-09T14:48:50.492Z,19.90
2022-10-09T14:50:41.304Z,19.90
2022-10-09T14:52:32.404Z,19.90
2022-10-09T14:54:22.962Z,19.90
2022-10-09T14:56:18.312Z,19.90
2022-10-09T14:58:09.012Z,20.00
2022-10-09T14:59:59.772Z,20.00
2022-10-09T15:01:50.684Z,19.90
2022-10-09T15:03:41.883Z,19.90
2022-10-09T15:05:35.185Z,20.00
2022-10-09T15:07:26.057Z,20.00
2022-10-09T15:09:16.851Z,20.10
2022-10-09T15:11:08.422Z,20.10
2022-10-09T15:13:00.443Z,20.10
2022-10-09T15:14:51.650Z,20.00
2022-10-09T15:16:42.444Z,20.00
2022-10-09T15:18:33.350Z,20.10
2022-10-09T15:20:23.883Z,20.20
2022-10-09T15:22:14.713Z,20.40
2022-10-09T15:24:05.956Z,20.40
2022-10-09T15:25:58.838Z,20.50
2022-10-09T15:27:54.424Z,20.50
2022-10-09T15:29:46.752Z,20.40
2022-10-09T15:31:40.242Z,20.50
2022-10-09T15:33:31.441Z,20.60
2022-10-09T15:35:22.431Z,20.70
2022-10-09T15:37:13.418Z,20.60
2022-10-09T15:39:04.826Z,20.60
2022-10-09T15:40:56.806Z,20.50
2022-10-09T15:42:47.581Z,20.50
2022-10-09T15:44:38.482Z,20.40
2022-10-09T15:46:31.427Z,20.30
2022-10-09T15:48:24.485Z,20.30
2022-10-09T15:50:15.219Z,20.30
2022-10-09T15:52:06.056Z,20.30
2022-10-09T15:53:59.846Z,20.20
2022-10-09T15:55:53.077Z,20.20
2022-10-09T15:57:43.978Z,20.30
2022-10-09T15:59:34.997Z,20.20
2022-10-09T16:01:26.450Z,20.30
2022-10-09T16:03:18.675Z,20.30
2022-10-09T16:05:09.812Z,20.40
2022-10-09T16:07:00.261Z,20.40
2022-10-09T16:08:51.019Z,20.40
2022-10-09T16:10:46.403Z,20.40
2022-10-09T16:12:39.383Z,20.40
2022-10-09T16:14:31.317Z,20.40
2022-10-09T16:16:24.668Z,20.40
2022-10-09T16:18:18.319Z,20.20
2022-10-09T16:20:09.945Z,20.00
2022-10-09T16:22:00.810Z,19.80
2022-10-09T16:23:57.358Z,19.70
2022-10-09T16:25:58.556Z,19.50
2022-10-09T16:28:00.843Z,19.40
2022-10-09T16:29:59.787Z,19.20
2022-10-09T16:31:50.713Z,19.00
2022-10-09T16:33:42.892Z,18.90
2022-10-09T16:35:33.913Z,18.80
2022-10-09T16:37:24.534Z,18.80
2022-10-09T16:39:15.213Z,18.70
2022-10-09T16:41:08.884Z,18.70
2022-10-09T16:42:59.491Z,18.60
2022-10-09T16:44:50.165Z,18.50
2022-10-09T16:46:41.171Z,18.40
2022-10-09T16:48:32.898Z,18.40
2022-10-09T16:50:25.586Z,18.30
2022-10-09T16:52:16.055Z,18.20
2022-10-09T16:54:06.972Z,18.10
2022-10-09T16:56:08.533Z,18.10
2022-10-09T16:57:59.388Z,18.00
2022-10-09T16:59:50.371Z,18.00
2022-10-09T17:01:41.419Z,17.90
2022-10-09T17:03:32.294Z,17.80
2022-10-09T17:05:22.953Z,17.80
2022-10-09T17:07:15.411Z,17.80
2022-10-09T17:09:13.534Z,17.70
2022-10-09T17:11:07.848Z,17.60
2022-10-09T17:12:58.356Z,17.50
2022-10-09T17:14:51.373Z,17.40
2022-10-09T17:16:43.265Z,17.30
2022-10-09T17:18:35.161Z,17.20
2022-10-09T17:20:25.995Z,17.10
2022-10-09T17:22:18.789Z,17.00
2022-10-09T17:24:15.068Z,16.90
2022-10-09T17:26:06.669Z,16.90
2022-10-09T17:27:57.454Z,16.80
2022-10-09T17:29:47.879Z,16.80
2022-10-09T17:31:38.732Z,16.80
2022-10-09T17:33:30.196Z,16.80
2022-10-09T17:35:21.176Z,16.70
2022-10-09T17:37:13.139Z,16.70
2022-10-09T17:39:07.125Z,16.60
2022-10-09T17:40:57.646Z,16.60
2022-10-09T17:42:48.664Z,16.60
2022-10-09T17:44:39.912Z,16.50
2022-10-09T17:46:30.866Z,16.40
2022-10-09T17:48:21.791Z,16.40
2022-10-09T17:50:12.374Z,16.50
2022-10-09T17:52:03.325Z,16.40
2022-10-09T17:55:50.931Z,16.30
2022-10-09T17:57:41.547Z,16.20
2022-10-09T17:59:32.697Z,16.10
2022-10-09T18:01:23.636Z,16.10
2022-10-09T18:03:15.164Z,16.10
2022-10-09T18:05:06.858Z,16.10
2022-10-09T18:06:57.790Z,16.10
2022-10-09T18:08:48.469Z,16.00
2022-10-09T18:10:39.370Z,15.90
2022-10-09T18:12:31.842Z,15.90
2022-10-09T18:14:22.524Z,15.90
2022-10-09T18:16:16.363Z,15.90
2022-10-09T18:18:07.542Z,15.90
2022-10-09T18:19:58.209Z,15.80
2022-10-09T18:21:50.376Z,15.80
2022-10-09T18:23:41.100Z,15.70
2022-10-09T18:25:32.176Z,15.60
2022-10-09T18:27:22.959Z,15.60
2022-10-09T18:29:15.359Z,15.60
2022-10-09T18:31:07.316Z,15.60
2022-10-09T18:32:58.423Z,15.60
2022-10-09T18:34:49.031Z,15.60
2022-10-09T18:36:39.914Z,15.70
2022-10-09T18:38:31.271Z,15.70
2022-10-09T18:40:21.909Z,15.60
2022-10-09T18:42:12.656Z,15.50
2022-10-09T18:44:04.426Z,15.40
2022-10-09T18:45:56.769Z,15.30
2022-10-09T18:47:48.088Z,15.20
2022-10-09T18:49:44.060Z,15.10
2022-10-09T18:51:36.276Z,15.20
2022-10-09T18:53:27.219Z,15.10
2022-10-09T18:55:19.671Z,15.10
2022-10-09T18:57:10.706Z,15.10
2022-10-09T18:59:08.849Z,15.10
2022-10-09T19:01:04.250Z,15.00
2022-10-09T19:02:57.580Z,14.90
2022-10-09T19:04:48.948Z,14.90
2022-10-09T19:06:40.043Z,14.80
2022-10-09T19:08:30.637Z,14.70
2022-10-09T19:10:21.230Z,14.80
2022-10-09T19:12:12.132Z,14.70
2022-10-09T19:14:03.057Z,14.70
2022-10-09T19:15:56.166Z,14.60
2022-10-09T19:17:48.382Z,14.60
2022-10-09T19:19:39.595Z,14.50
2022-10-09T19:21:30.021Z,14.50
2022-10-09T19:23:20.805Z,14.40
2022-10-09T19:25:12.157Z,14.40
2022-10-09T19:27:03.801Z,14.40
2022-10-09T19:28:54.415Z,14.30
2022-10-09T19:30:46.170Z,14.30
2022-10-09T19:32:37.199Z,14.30
2022-10-09T19:34:30.104Z,14.30
2022-10-09T19:36:20.854Z,14.20
2022-10-09T19:38:12.082Z,14.20
2022-10-09T19:40:03.029Z,14.20
2022-10-09T19:41:53.489Z,14.20
2022-10-09T19:43:44.442Z,14.20
2022-10-09T19:45:35.618Z,14.20
2022-10-09T19:47:26.674Z,14.20
2022-10-09T19:49:17.827Z,14.10
2022-10-09T19:51:13.776Z,14.10
2022-10-09T19:53:04.207Z,14.00
2022-10-09T19:54:54.995Z,14.00
2022-10-09T19:56:45.612Z,14.00
2022-10-09T19:58:39.204Z,14.00
2022-10-09T20:00:30.432Z,14.00
2022-10-09T20:02:20.884Z,14.00
2022-10-09T20:04:11.821Z,14.00
2022-10-09T20:06:03.537Z,14.00
2022-10-09T20:07:55.988Z,14.00
2022-10-09T20:09:46.769Z,14.00
2022-10-09T20:11:38.094Z,14.00
2022-10-09T20:13:29.310Z,14.00
2022-10-09T20:15:21.688Z,13.90
2022-10-09T20:17:12.725Z,13.90
2022-10-09T20:19:06.660Z,13.90
2022-10-09T20:20:57.438Z,13.90
2022-10-09T20:22:49.299Z,13.90
2022-10-09T20:24:42.040Z,13.90
2022-10-09T20:26:37.722Z,13.90
2022-10-09T20:28:38.790Z,13.90
2022-10-09T20:30:29.458Z,13.90
2022-10-09T20:32:20.454Z,13.90
2022-10-09T20:34:10.917Z,13.70
2022-10-09T20:36:03.909Z,13.80
2022-10-09T20:37:54.801Z,13.80
2022-10-09T20:39:47.512Z,13.70
2022-10-09T20:41:39.348Z,13.80
2022-10-09T20:43:30.096Z,13.70
2022-10-09T20:45:20.698Z,13.60
2022-10-09T20:47:11.727Z,13.60
2022-10-09T20:49:04.302Z,13.50
2022-10-09T20:50:55.280Z,13.50
2022-10-09T20:52:46.438Z,13.50
2022-10-09T20:54:37.452Z,13.50
2022-10-09T20:56:32.855Z,13.50
2022-10-09T20:58:23.578Z,13.50
2022-10-09T21:00:14.823Z,13.40
2022-10-09T21:02:05.633Z,13.40
2022-10-09T21:03:57.414Z,13.40
2022-10-09T21:05:48.525Z,13.40
2022-10-09T21:07:39.119Z,13.30
2022-10-09T21:09:33.255Z,13.20
2022-10-09T21:11:25.065Z,13.20
2022-10-09T21:13:17.471Z,13.10
2022-10-09T21:15:10.591Z,13.10
2022-10-09T21:17:01.561Z,13.10
2022-10-09T21:18:54.942Z,13.00
2022-10-09T21:20:48.487Z,13.00
2022-10-09T21:22:39.332Z,13.00
2022-10-09T21:24:30.240Z,13.00
2022-10-09T21:26:11.865Z,12.90
2022-10-09T21:28:03.275Z,12.90
2022-10-09T21:29:55.309Z,12.90
2022-10-09T21:31:45.745Z,12.90
2022-10-09T21:33:36.958Z,12.90
2022-10-09T21:35:27.782Z,12.90
2022-10-09T21:37:22.387Z,13.00
2022-10-09T21:39:14.057Z,12.90
2022-10-09T21:41:05.216Z,12.90
2022-10-09T21:42:56.105Z,12.80
2022-10-09T21:44:46.980Z,12.80
2022-10-09T21:46:39.047Z,12.80
2022-10-09T21:48:29.791Z,12.80
2022-10-09T21:50:20.682Z,12.80
2022-10-09T21:52:11.490Z,12.80
2022-10-09T21:54:02.423Z,12.70
2022-10-09T21:55:53.188Z,12.70
2022-10-09T21:57:45.293Z,12.70
2022-10-09T21:59:36.155Z,12.70
2022-10-09T22:01:26.902Z,12.60
2022-10-09T22:03:19.100Z,12.60
2022-10-09T22:05:10.082Z,12.60
2022-10-09T22:07:01.634Z,12.50
2022-10-09T22:08:52.731Z,12.50
2022-10-09T22:10:43.494Z,12.50
2022-10-09T22:12:34.512Z,12.50
2022-10-09T22:14:25.296Z,12.50
2022-10-09T22:16:16.103Z,12.50
2022-10-09T22:18:07.419Z,12.40
2022-10-09T22:19:59.125Z,12.40
2022-10-09T22:21:50.245Z,12.40
2022-10-09T22:23:41.434Z,12.30
2022-10-09T22:25:33.362Z,12.30
2022-10-09T22:27:23.921Z,12.20
2022-10-09T22:29:15.005Z,12.20
2022-10-09T22:31:08.906Z,12.10
2022-10-09T22:32:59.639Z,12.10
2022-10-09T22:34:51.275Z,12.10
2022-10-09T22:36:44.024Z,12.10
2022-10-09T22:38:35.238Z,12.10
2022-10-09T22:40:25.852Z,12.10
2022-10-09T22:42:16.825Z,12.10
2022-10-09T22:44:09.200Z,12.10
2022-10-09T22:46:00.068Z,12.10
2022-10-09T22:47:51.277Z,12.10
2022-10-09T22:49:42.187Z,12.00
2022-10-09T22:51:33.494Z,12.00
2022-10-09T22:53:25.752Z,12.00
2022-10-09T22:55:16.805Z,12.00
2022-10-09T22:57:07.429Z,11.90
2022-10-09T22:58:58.091Z,12.00
2022-10-09T23:00:48.697Z,12.00
2022-10-09T23:02:39.454Z,12.00
2022-10-09T23:04:30.207Z,11.90
2022-10-09T23:06:21.138Z,11.90
2022-10-09T23:08:11.815Z,11.90
2022-10-09T23:10:04.715Z,12.00
2022-10-09T23:11:56.720Z,12.00
2022-10-09T23:13:51.899Z,12.10
2022-10-09T23:15:42.353Z,12.10
2022-10-09T23:17:33.175Z,12.00
2022-10-09T23:19:24.109Z,12.00
2022-10-09T23:21:18.353Z,12.10
2022-10-09T23:23:08.976Z,12.10
2022-10-09T23:24:59.745Z,12.00
2022-10-09T23:26:52.683Z,12.00
2022-10-09T23:28:48.362Z,12.10
2022-10-09T23:30:39.641Z,12.10
2022-10-09T23:32:30.784Z,12.10
2022-10-09T23:34:21.695Z,12.00
2022-10-09T23:36:15.051Z,12.10
2022-10-09T23:38:05.989Z,12.10
2022-10-09T23:39:56.851Z,12.10
2022-10-09T23:41:47.897Z,12.10
2022-10-09T23:43:41.373Z,12.10
2022-10-09T23:45:32.202Z,12.20
2022-10-09T23:47:22.863Z,12.20
2022-10-09T23:49:13.630Z,12.20
2022-10-09T23:51:04.834Z,12.20
2022-10-09T23:52:55.532Z,12.30
2022-10-09T23:54:46.434Z,12.30
2022-10-09T23:56:37.368Z,12.30
2022-10-09T23:58:27.918Z,12.30
